Repubblicadelbrasile — IBZB — position and weather

sailwx.info

Track history (hours):
 
Tides and Currents Weather Stations Pressure Air Temp Water Temp Dewpoint Dewpoint Depression Visibility Wind Speed Wind Dir Waves Ship Positions

Repubblicadelbrasile

Last reported at 2018-Feb-13 23:56 UTC. Time now 2018-Feb-22 16:46 UTC.
Position N 06°03' E 001°24'.
Warning: this ship's position is 8 days out of date.

Length 210 m; draft 8.2 m.

Type: Ship (hazmat cat C). MMSI: 247310000.

Date/timePositionNaut miles runAvg speedWind from/ knotsBaromVisibWave heightAir tempDewpointWater temp
2018-Feb-13 23:56N 06°03' E 001°24'4 8.3
2018-Feb-13 23:30N 06°04' E 001°21'89 5.4
2018-Feb-13 06:51N 05°03' E 000°16'  
2018-Feb-09 20:30N 07°37' W 013°55'1717.5
2018-Feb-09 19:31N 07°47' W 014°10'917.1
2018-Feb-09 19:00N 07°52' W 014°16'3517.5
2018-Feb-09 17:00N 08°16' W 014°42'917.5
2018-Feb-09 16:30N 08°22' W 014°49'917.7
2018-Feb-09 16:00N 08°28' W 014°56'1817.8
2018-Feb-09 15:00N 08°40' W 015°09'1817.9
2018-Feb-09 14:00N 08°52' W 015°22'1817.9
2018-Feb-09 13:00N 09°05' W 015°35'  
Track history (hours):
 
Tides and Currents Weather Stations Pressure Air Temp Water Temp Dewpoint Dewpoint Depression Visibility Wind Speed Wind Dir Waves Ship Positions

Repubblicadelbrasile

Last reported at 2018-Feb-13 23:56 UTC. Time now 2018-Feb-22 16:46 UTC.
Position N 06°03' E 001°24'.
Warning: this ship's position is 8 days out of date.

Length 210 m; draft 8.2 m.

Type: Ship (hazmat cat C). MMSI: 247310000.

Date/timePositionNaut miles runAvg speedWind from/ knotsBaromVisibWave heightAir tempDewpointWater temp
2018-Feb-13 23:56N 06°03' E 001°24'4 8.3
2018-Feb-13 23:30N 06°04' E 001°21'89 5.4
2018-Feb-13 06:51N 05°03' E 000°16'  
2018-Feb-09 20:30N 07°37' W 013°55'1717.5
2018-Feb-09 19:31N 07°47' W 014°10'917.1
2018-Feb-09 19:00N 07°52' W 014°16'3517.5
2018-Feb-09 17:00N 08°16' W 014°42'917.5
2018-Feb-09 16:30N 08°22' W 014°49'917.7
2018-Feb-09 16:00N 08°28' W 014°56'1817.8
2018-Feb-09 15:00N 08°40' W 015°09'1817.9
2018-Feb-09 14:00N 08°52' W 015°22'1817.9
2018-Feb-09 13:00N 09°05' W 015°35'  

Dump ship's entire track history